Time;durP1;ratioP1;P1;durP2;ratioP2;P2;SDS_P1;SDS_P2;PMS_P1;PMS_P2;Temp;Humidity;BMP_temperature;BMP_pressure;BME280_temperature;BME280_humidity;BME280_pressure;Samples;Min_cycle;Max_cycle;Signal;HPM_P1;HPM_P2
2023/04/22 00:01:37;;;;;;;11.00;6.97;;;11.70;99.90;;;;;;4213650;28;21054;-75
2023/04/22 00:03:40;;;;;;;14.37;6.37;;;11.60;99.90;;;;;;4212469;28;20221;-76
2023/04/22 00:05:43;;;;;;;10.70;6.20;;;11.60;99.90;;;;;;4210191;28;20223;-76
2023/04/22 00:07:45;;;;;;;9.77;6.20;;;11.50;99.90;;;;;;4204118;28;20213;-76
2023/04/22 00:09:47;;;;;;;9.77;6.73;;;11.60;99.90;;;;;;4210464;28;20244;-75
2023/04/22 00:11:49;;;;;;;11.20;6.70;;;11.50;99.90;;;;;;4209954;28;20588;-75
2023/04/22 00:13:51;;;;;;;11.17;6.40;;;11.50;99.90;;;;;;4210534;28;20752;-76
2023/04/22 00:15:54;;;;;;;9.90;6.73;;;11.50;99.90;;;;;;4209636;28;20282;-76
2023/04/22 00:17:58;;;;;;;10.17;6.37;;;11.40;99.90;;;;;;4214943;28;20205;-75
2023/04/22 00:20:00;;;;;;;10.93;6.40;;;11.40;99.90;;;;;;4209874;28;20318;-75
2023/04/22 00:22:02;;;;;;;10.57;6.40;;;11.40;99.90;;;;;;4212063;28;20234;-76
2023/04/22 00:24:04;;;;;;;13.90;6.73;;;11.30;99.90;;;;;;4214919;28;20307;-76
2023/04/22 00:26:06;;;;;;;11.97;6.00;;;11.30;99.90;;;;;;4213418;28;20301;-76
2023/04/22 00:28:10;;;;;;;9.80;6.23;;;11.30;99.90;;;;;;4210805;28;20205;-76
2023/04/22 00:30:12;;;;;;;9.43;6.30;;;11.20;99.90;;;;;;4209019;28;20267;-77
2023/04/22 00:32:15;;;;;;;10.57;6.20;;;11.20;99.90;;;;;;4212375;28;20236;-75
2023/04/22 00:34:18;;;;;;;12.83;6.20;;;11.20;99.90;;;;;;4204416;28;20236;-76
2023/04/22 00:36:20;;;;;;;9.37;6.37;;;11.20;99.90;;;;;;4208430;28;20672;-76
2023/04/22 00:38:23;;;;;;;9.77;6.17;;;11.20;99.90;;;;;;4204909;28;20287;-77
2023/04/22 00:40:25;;;;;;;8.33;5.93;;;11.10;99.90;;;;;;4210367;28;20235;-77
2023/04/22 00:42:28;;;;;;;9.70;5.87;;;11.10;99.90;;;;;;4209365;28;20231;-76
2023/04/22 00:44:30;;;;;;;9.60;5.90;;;11.00;99.90;;;;;;4213323;28;20656;-76
2023/04/22 00:46:34;;;;;;;9.43;6.10;;;11.00;99.90;;;;;;4214334;28;20211;-77
2023/04/22 00:48:38;;;;;;;9.53;5.90;;;11.00;99.90;;;;;;4206522;28;20248;-76
2023/04/22 00:50:42;;;;;;;7.93;5.73;;;10.90;99.90;;;;;;4215136;28;20323;-76
2023/04/22 00:52:45;;;;;;;9.80;6.20;;;11.00;99.90;;;;;;4208764;28;20215;-76
2023/04/22 00:54:48;;;;;;;9.37;5.50;;;10.90;99.90;;;;;;4204080;28;20219;-75
2023/04/22 00:56:50;;;;;;;10.13;6.60;;;10.90;99.90;;;;;;4210451;28;20268;-75
2023/04/22 00:58:54;;;;;;;9.37;6.23;;;10.80;99.90;;;;;;4219050;28;20236;-76
2023/04/22 01:00:56;;;;;;;10.67;5.83;;;10.80;99.90;;;;;;4207659;28;20227;-76
2023/04/22 01:03:01;;;;;;;8.97;5.87;;;10.80;99.90;;;;;;4203686;28;20672;-75
2023/04/22 01:05:04;;;;;;;10.37;6.27;;;10.80;99.90;;;;;;4207775;28;20212;-75
2023/04/22 01:07:06;;;;;;;11.63;6.10;;;10.80;99.90;;;;;;4215247;28;20831;-76
2023/04/22 01:09:08;;;;;;;7.83;5.93;;;10.80;99.90;;;;;;4213293;28;20573;-76
2023/04/22 01:11:10;;;;;;;11.67;6.30;;;10.70;99.90;;;;;;4211452;28;20302;-76
2023/04/22 01:13:14;;;;;;;10.97;5.63;;;10.70;99.90;;;;;;4202941;28;20299;-76
2023/04/22 01:15:16;;;;;;;11.47;5.83;;;10.70;99.90;;;;;;4209402;28;20254;-76
2023/04/22 01:17:20;;;;;;;9.57;6.07;;;10.70;99.90;;;;;;4209376;28;20657;-76
2023/04/22 01:19:25;;;;;;;10.43;6.23;;;10.60;99.90;;;;;;4207470;28;20237;-76
2023/04/22 01:21:32;;;;;;;11.53;5.77;;;10.60;99.90;;;;;;4212088;28;20635;-76
2023/04/22 01:23:35;;;;;;;8.53;6.03;;;10.60;99.90;;;;;;4204825;28;20568;-76
2023/04/22 01:25:40;;;;;;;8.33;5.57;;;10.60;99.90;;;;;;4207143;28;20243;-75
2023/04/22 01:27:43;;;;;;;8.47;5.60;;;10.60;99.90;;;;;;4208177;28;20716;-76
2023/04/22 01:29:45;;;;;;;12.23;6.43;;;10.60;99.90;;;;;;4204954;28;20540;-76
2023/04/22 01:31:47;;;;;;;9.70;5.47;;;10.60;99.90;;;;;;4210872;28;20204;-75
2023/04/22 01:33:50;;;;;;;11.30;6.37;;;10.60;99.90;;;;;;4210320;28;20204;-76
2023/04/22 01:35:52;;;;;;;10.67;5.57;;;10.50;99.90;;;;;;4209421;28;20972;-76
2023/04/22 01:37:56;;;;;;;8.97;5.77;;;10.50;99.90;;;;;;4210499;28;20239;-76
2023/04/22 01:39:59;;;;;;;8.73;5.80;;;10.50;99.90;;;;;;4205619;28;20233;-75
2023/04/22 01:42:02;;;;;;;10.67;6.07;;;10.50;99.90;;;;;;4205547;28;20232;-76
2023/04/22 01:44:07;;;;;;;12.70;5.93;;;10.50;99.90;;;;;;4204284;28;20243;-76
2023/04/22 01:46:12;;;;;;;10.80;5.80;;;10.50;99.90;;;;;;4211040;28;20211;-76
2023/04/22 01:48:16;;;;;;;9.60;5.83;;;10.50;99.90;;;;;;4210291;28;20693;-76
2023/04/22 01:50:18;;;;;;;11.10;6.13;;;10.40;99.90;;;;;;4205656;28;20228;-76
2023/04/22 01:52:20;;;;;;;11.00;6.33;;;10.50;99.90;;;;;;4214787;28;20255;-76
2023/04/22 01:54:22;;;;;;;8.33;5.50;;;10.40;99.90;;;;;;4207973;28;20745;-76
2023/04/22 01:56:27;;;;;;;10.80;6.07;;;10.40;99.90;;;;;;4213893;28;20224;-76
2023/04/22 01:58:29;;;;;;;8.53;5.83;;;10.40;99.90;;;;;;4207002;28;20243;-76
2023/04/22 02:00:31;;;;;;;10.00;5.53;;;10.40;99.90;;;;;;4214264;28;20236;-76
2023/04/22 02:02:33;;;;;;;11.60;6.30;;;10.40;99.90;;;;;;4210508;28;20327;-76
2023/04/22 02:04:35;;;;;;;11.43;5.73;;;10.40;99.90;;;;;;4212573;28;20337;-76
2023/04/22 02:06:37;;;;;;;9.73;6.00;;;10.40;99.90;;;;;;4215959;28;20208;-76
2023/04/22 02:08:40;;;;;;;7.67;5.30;;;10.30;99.90;;;;;;4214044;28;20218;-76
2023/04/22 02:10:42;;;;;;;9.63;5.80;;;10.30;99.90;;;;;;4209772;28;20223;-76
2023/04/22 02:12:45;;;;;;;12.00;6.33;;;10.30;99.90;;;;;;4216635;28;20208;-76
2023/04/22 02:14:47;;;;;;;9.23;5.83;;;10.30;99.90;;;;;;4206364;28;20233;-76
2023/04/22 02:16:49;;;;;;;11.47;5.77;;;10.30;99.90;;;;;;4212011;28;20207;-76
2023/04/22 02:18:51;;;;;;;7.03;5.10;;;10.30;99.90;;;;;;4216707;28;20303;-76
2023/04/22 02:20:52;;;;;;;8.40;5.30;;;10.30;99.90;;;;;;4206515;28;20654;-76
2023/04/22 02:22:54;;;;;;;8.57;5.60;;;10.30;99.90;;;;;;4213563;28;20232;-76
2023/04/22 02:24:56;;;;;;;10.33;5.73;;;10.30;99.90;;;;;;4209717;28;20237;-76
2023/04/22 02:26:59;;;;;;;10.60;6.17;;;10.30;99.90;;;;;;4209785;28;20211;-76
2023/04/22 02:29:02;;;;;;;9.57;5.57;;;10.20;99.90;;;;;;4216360;28;20265;-76
2023/04/22 02:31:04;;;;;;;9.40;6.03;;;10.20;99.90;;;;;;4213052;28;20339;-75
2023/04/22 02:33:08;;;;;;;8.83;5.57;;;10.20;99.90;;;;;;4209986;28;20336;-76
2023/04/22 02:35:11;;;;;;;10.07;5.87;;;10.20;99.90;;;;;;4201840;28;20299;-76
2023/04/22 02:37:13;;;;;;;10.17;6.17;;;10.20;99.90;;;;;;4213402;28;20215;-75
2023/04/22 02:39:15;;;;;;;8.43;5.40;;;10.10;99.90;;;;;;4213465;28;20299;-76
2023/04/22 02:41:17;;;;;;;9.30;6.20;;;10.10;99.90;;;;;;4212583;28;20303;-76
2023/04/22 02:43:18;;;;;;;11.83;6.43;;;10.10;99.90;;;;;;4212756;28;20228;-76
2023/04/22 02:45:22;;;;;;;9.30;6.10;;;10.10;99.90;;;;;;4211938;28;20208;-76
2023/04/22 02:47:23;;;;;;;10.70;5.87;;;10.10;99.90;;;;;;4213199;28;20204;-76
2023/04/22 02:49:25;;;;;;;11.80;6.13;;;10.10;99.90;;;;;;4211039;28;20222;-76
2023/04/22 02:51:27;;;;;;;12.80;6.00;;;10.00;99.90;;;;;;4209317;28;20219;-76
2023/04/22 02:53:29;;;;;;;9.03;5.83;;;10.10;99.90;;;;;;4209924;28;20222;-76
2023/04/22 02:55:31;;;;;;;11.83;6.67;;;10.00;99.90;;;;;;4209763;28;20234;-75
2023/04/22 02:57:33;;;;;;;9.73;6.20;;;10.00;99.90;;;;;;4207839;28;20255;-76
2023/04/22 02:59:41;;;;;;;11.70;6.63;;;10.00;99.90;;;;;;4213409;28;20261;-76
2023/04/22 03:01:44;;;;;;;9.87;6.33;;;10.00;99.90;;;;;;4202934;28;20630;-76
2023/04/22 03:03:46;;;;;;;10.40;6.90;;;9.90;99.90;;;;;;4207584;28;20243;-75
2023/04/22 03:05:48;;;;;;;14.20;7.83;;;9.90;99.90;;;;;;4213461;28;20252;-75
2023/04/22 03:07:50;;;;;;;13.57;7.60;;;9.90;99.90;;;;;;4210373;28;20330;-76
2023/04/22 03:09:53;;;;;;;11.60;7.20;;;9.90;99.90;;;;;;4212776;28;20318;-76
2023/04/22 03:11:55;;;;;;;14.10;7.57;;;9.90;99.90;;;;;;4213080;28;20212;-75
2023/04/22 03:13:57;;;;;;;12.70;8.07;;;9.90;99.90;;;;;;4202417;28;20726;-76
2023/04/22 03:15:59;;;;;;;15.97;7.87;;;9.90;99.90;;;;;;4213628;28;20579;-76
2023/04/22 03:18:02;;;;;;;12.40;7.27;;;9.90;99.90;;;;;;4212460;28;20720;-76
2023/04/22 03:20:06;;;;;;;12.03;7.47;;;9.80;99.90;;;;;;4208922;28;20721;-76
2023/04/22 03:22:08;;;;;;;13.20;7.30;;;9.80;99.90;;;;;;4209689;28;20224;-76
2023/04/22 03:24:09;;;;;;;14.13;7.33;;;9.80;99.90;;;;;;4209088;28;20610;-76
2023/04/22 03:26:12;;;;;;;12.23;6.77;;;9.80;99.90;;;;;;4212760;28;20298;-77
2023/04/22 03:28:16;;;;;;;14.67;8.20;;;9.80;99.90;;;;;;4211011;28;20657;-76
2023/04/22 03:30:18;;;;;;;11.17;6.70;;;9.70;99.90;;;;;;4206381;28;20280;-75
2023/04/22 03:32:20;;;;;;;10.87;6.33;;;9.70;99.90;;;;;;4206769;28;20213;-76
2023/04/22 03:34:23;;;;;;;11.70;6.50;;;9.70;99.90;;;;;;4207201;28;20211;-76
2023/04/22 03:36:26;;;;;;;11.00;6.83;;;9.70;99.90;;;;;;4214813;28;20665;-75
2023/04/22 03:38:28;;;;;;;11.83;7.10;;;9.70;99.90;;;;;;4210980;28;20676;-75
2023/04/22 03:40:29;;;;;;;13.87;6.97;;;9.70;99.90;;;;;;4213970;28;20667;-75
2023/04/22 03:42:31;;;;;;;13.00;7.60;;;9.70;99.90;;;;;;4211834;28;20228;-75
2023/04/22 03:44:33;;;;;;;10.97;6.70;;;9.70;99.90;;;;;;4201641;28;20214;-75
2023/04/22 03:46:35;;;;;;;11.90;7.53;;;9.60;99.90;;;;;;4207578;28;20684;-75
2023/04/22 03:48:37;;;;;;;11.97;7.13;;;9.60;99.90;;;;;;4173264;28;1097449;-75
2023/04/22 03:50:40;;;;;;;12.23;7.47;;;9.60;99.90;;;;;;4211207;28;20731;-76
2023/04/22 03:52:42;;;;;;;11.00;6.80;;;9.60;99.90;;;;;;4214298;28;20242;-76
2023/04/22 03:54:44;;;;;;;10.83;7.27;;;9.60;99.90;;;;;;4208195;28;20298;-76
2023/04/22 03:56:46;;;;;;;11.67;6.73;;;9.60;99.90;;;;;;4213271;28;20238;-75
2023/04/22 03:58:48;;;;;;;12.83;6.97;;;9.60;99.90;;;;;;4211011;28;20222;-75
2023/04/22 04:00:50;;;;;;;13.13;7.57;;;9.50;99.90;;;;;;4210839;28;20244;-75
2023/04/22 04:02:53;;;;;;;15.77;7.80;;;9.50;99.90;;;;;;4212043;28;20317;-76
2023/04/22 04:04:55;;;;;;;15.90;7.97;;;9.50;99.90;;;;;;4204257;28;20207;-76
2023/04/22 04:06:58;;;;;;;12.73;7.50;;;9.50;99.90;;;;;;4210396;28;20686;-76
2023/04/22 04:09:00;;;;;;;13.63;7.90;;;9.50;99.90;;;;;;4209619;28;20301;-76
2023/04/22 04:11:02;;;;;;;11.87;7.60;;;9.50;99.90;;;;;;4212965;28;20272;-76
2023/04/22 04:13:05;;;;;;;13.67;7.60;;;9.50;99.90;;;;;;4211031;28;20207;-76
2023/04/22 04:15:08;;;;;;;14.63;7.50;;;9.50;99.90;;;;;;4211342;28;20636;-76
2023/04/22 04:17:12;;;;;;;12.43;6.90;;;9.50;99.90;;;;;;4209712;28;20236;-76
2023/04/22 04:19:14;;;;;;;13.07;7.20;;;9.40;99.90;;;;;;4208929;28;20241;-76
2023/04/22 04:21:16;;;;;;;11.97;6.87;;;9.50;99.90;;;;;;4208197;28;20207;-76
2023/04/22 04:23:20;;;;;;;13.67;7.67;;;9.40;99.90;;;;;;4214187;28;20729;-76
2023/04/22 04:25:22;;;;;;;11.83;7.70;;;9.40;99.90;;;;;;4212917;28;20207;-75
2023/04/22 04:27:23;;;;;;;11.57;6.67;;;9.40;99.90;;;;;;4211113;28;20224;-75
2023/04/22 04:29:25;;;;;;;16.00;7.20;;;9.50;99.90;;;;;;4207518;28;20564;-76
2023/04/22 04:31:27;;;;;;;15.83;8.43;;;9.50;99.90;;;;;;4213212;28;20298;-76
2023/04/22 04:33:31;;;;;;;12.13;7.63;;;9.40;99.90;;;;;;4207299;28;20214;-75
2023/04/22 04:35:33;;;;;;;12.77;7.83;;;9.40;99.90;;;;;;4207744;28;20718;-76
2023/04/22 04:37:35;;;;;;;13.53;8.00;;;9.40;99.90;;;;;;4208154;28;20215;-76
2023/04/22 04:39:40;;;;;;;11.77;7.00;;;9.40;99.90;;;;;;4216114;28;20257;-76
2023/04/22 04:41:43;;;;;;;11.83;7.40;;;9.40;99.90;;;;;;4212802;28;20252;-76
2023/04/22 04:43:46;;;;;;;12.07;7.30;;;9.50;99.90;;;;;;4206626;28;20219;-76
2023/04/22 04:45:48;;;;;;;13.17;7.93;;;9.40;99.90;;;;;;4206697;28;20207;-76
2023/04/22 04:47:51;;;;;;;11.53;7.10;;;9.40;99.90;;;;;;4200904;28;20310;-75
2023/04/22 04:49:53;;;;;;;11.10;7.00;;;9.50;99.90;;;;;;4202095;28;20293;-76
2023/04/22 04:51:55;;;;;;;11.33;7.07;;;9.50;99.90;;;;;;4208415;28;20740;-76
2023/04/22 04:53:57;;;;;;;15.23;8.07;;;9.40;99.90;;;;;;4202189;28;20212;-76
2023/04/22 04:56:00;;;;;;;12.07;7.20;;;9.50;99.90;;;;;;4211976;28;20223;-76
2023/04/22 04:58:02;;;;;;;12.97;7.67;;;9.50;99.90;;;;;;4211108;28;20238;-76
2023/04/22 05:00:05;;;;;;;14.07;7.53;;;9.50;99.90;;;;;;4212851;28;20271;-76
2023/04/22 05:02:07;;;;;;;11.23;7.30;;;9.50;99.90;;;;;;4211053;28;20261;-76
2023/04/22 05:04:10;;;;;;;10.67;7.13;;;9.50;99.90;;;;;;4207405;28;20231;-76
2023/04/22 05:06:12;;;;;;;12.47;7.67;;;9.50;99.90;;;;;;4207603;28;20212;-76
2023/04/22 05:08:14;;;;;;;12.27;7.20;;;9.50;99.90;;;;;;4210951;28;20298;-76
2023/04/22 05:10:15;;;;;;;15.60;7.87;;;9.60;99.90;;;;;;4211683;28;20765;-76
2023/04/22 05:12:19;;;;;;;12.93;7.80;;;9.60;99.90;;;;;;4208132;28;20575;-76
2023/04/22 05:14:21;;;;;;;11.10;7.53;;;9.60;99.90;;;;;;4205479;28;20238;-75
2023/04/22 05:16:23;;;;;;;12.50;7.53;;;9.60;99.90;;;;;;4208447;28;20206;-76
2023/04/22 05:18:24;;;;;;;12.83;7.33;;;9.60;99.90;;;;;;4207489;28;20752;-75
2023/04/22 05:20:26;;;;;;;13.23;7.47;;;9.70;99.90;;;;;;4209043;28;20317;-76
2023/04/22 05:22:28;;;;;;;13.60;7.80;;;9.60;99.90;;;;;;4208709;28;20295;-76
2023/04/22 05:24:30;;;;;;;12.07;7.73;;;9.70;99.90;;;;;;4208397;28;20594;-76
2023/04/22 05:26:32;;;;;;;13.93;7.37;;;9.70;99.90;;;;;;4205738;28;20248;-76
2023/04/22 05:28:35;;;;;;;15.70;7.97;;;9.70;99.90;;;;;;4211577;28;20213;-77
2023/04/22 05:30:38;;;;;;;11.80;7.20;;;9.70;99.90;;;;;;4210837;28;20242;-76
2023/04/22 05:32:40;;;;;;;10.47;6.83;;;9.70;99.90;;;;;;4206477;28;20240;-77
2023/04/22 05:34:42;;;;;;;13.70;7.70;;;9.80;99.90;;;;;;4208814;28;20246;-76
2023/04/22 05:36:43;;;;;;;12.83;6.93;;;9.80;99.90;;;;;;4206683;28;20238;-76
2023/04/22 05:38:45;;;;;;;11.63;6.43;;;9.80;99.90;;;;;;4211528;28;20217;-77
2023/04/22 05:40:47;;;;;;;12.43;7.00;;;9.80;99.90;;;;;;4208407;28;20260;-76
2023/04/22 05:42:49;;;;;;;11.50;6.37;;;9.80;99.90;;;;;;4206589;28;20208;-76
2023/04/22 05:44:52;;;;;;;11.20;6.73;;;9.90;99.90;;;;;;4209466;28;20200;-77
2023/04/22 05:46:54;;;;;;;11.60;7.60;;;9.90;99.90;;;;;;4211173;28;20741;-76
2023/04/22 05:48:56;;;;;;;10.83;7.40;;;9.90;99.90;;;;;;4208501;28;20219;-76
2023/04/22 05:50:58;;;;;;;14.90;8.07;;;10.00;99.90;;;;;;4206515;28;20276;-77
2023/04/22 05:53:03;;;;;;;13.97;8.13;;;9.90;99.90;;;;;;4202435;28;20222;-76
2023/04/22 05:55:06;;;;;;;16.30;7.97;;;10.00;99.90;;;;;;4203518;28;20569;-76
2023/04/22 05:57:08;;;;;;;11.70;6.90;;;10.00;99.90;;;;;;4206997;28;20216;-76
2023/04/22 05:59:10;;;;;;;12.30;7.20;;;10.00;99.90;;;;;;4206450;28;20215;-75
2023/04/22 06:01:13;;;;;;;11.73;7.03;;;10.10;99.90;;;;;;4210772;28;20269;-76
2023/04/22 06:03:15;;;;;;;12.53;6.67;;;10.10;99.90;;;;;;4208763;28;20252;-76
2023/04/22 06:05:17;;;;;;;11.23;7.33;;;10.20;99.90;;;;;;4210786;28;20293;-75
2023/04/22 06:07:19;;;;;;;10.90;7.00;;;10.20;99.90;;;;;;4209588;28;20302;-76
2023/04/22 06:09:21;;;;;;;9.93;5.97;;;10.20;99.90;;;;;;4207498;28;20784;-76
2023/04/22 06:11:23;;;;;;;12.40;6.70;;;10.20;99.90;;;;;;4211586;28;20239;-76
2023/04/22 06:13:26;;;;;;;13.77;7.27;;;10.30;99.90;;;;;;4207711;28;20679;-76
2023/04/22 06:15:28;;;;;;;10.97;6.73;;;10.30;99.90;;;;;;4212711;28;21801;-76
2023/04/22 06:17:34;;;;;;;11.20;6.47;;;10.30;99.90;;;;;;4211386;28;20306;-76
2023/04/22 06:19:38;;;;;;;13.03;6.57;;;10.30;99.90;;;;;;4209583;28;20315;-75
2023/04/22 06:21:41;;;;;;;12.50;6.33;;;10.40;99.90;;;;;;4211728;28;20251;-75
2023/04/22 06:23:43;;;;;;;10.67;6.70;;;10.40;99.90;;;;;;4212044;28;20713;-76
2023/04/22 06:25:46;;;;;;;9.80;6.13;;;10.40;99.90;;;;;;4209267;28;20312;-76
2023/04/22 06:27:48;;;;;;;12.70;6.57;;;10.50;99.90;;;;;;4212083;28;20209;-76
2023/04/22 06:29:49;;;;;;;13.67;7.03;;;10.50;99.90;;;;;;4207401;28;20346;-76
2023/04/22 06:31:52;;;;;;;9.70;6.57;;;10.50;99.90;;;;;;4207920;28;20813;-76
2023/04/22 06:33:55;;;;;;;10.30;6.17;;;10.50;99.90;;;;;;4208307;28;20211;-76
2023/04/22 06:35:57;;;;;;;9.33;6.07;;;10.60;99.90;;;;;;4211280;28;20296;-76
2023/04/22 06:38:00;;;;;;;9.13;5.83;;;10.60;99.90;;;;;;4203932;28;20216;-76
2023/04/22 06:40:02;;;;;;;10.30;6.50;;;10.70;99.90;;;;;;4205912;28;20381;-76
2023/04/22 06:42:04;;;;;;;11.17;6.47;;;10.70;99.90;;;;;;4214880;28;20970;-76
2023/04/22 06:44:06;;;;;;;10.73;6.40;;;10.60;99.90;;;;;;4209789;28;20323;-76
2023/04/22 06:46:08;;;;;;;13.43;6.47;;;10.80;99.90;;;;;;4203252;28;21229;-74
2023/04/22 06:48:10;;;;;;;12.73;6.60;;;10.80;99.90;;;;;;4210691;28;20312;-75
2023/04/22 06:50:13;;;;;;;8.73;6.10;;;10.90;99.90;;;;;;4212016;28;20644;-75
2023/04/22 06:52:15;;;;;;;10.37;6.10;;;10.90;99.90;;;;;;4209942;28;20213;-75
2023/04/22 06:54:17;;;;;;;9.57;6.20;;;10.90;99.90;;;;;;4217438;28;20268;-76
2023/04/22 06:56:19;;;;;;;11.90;6.67;;;11.00;99.90;;;;;;4211721;28;20609;-75
2023/04/22 06:58:21;;;;;;;11.23;5.97;;;11.00;99.90;;;;;;4214535;28;20675;-74
2023/04/22 07:00:24;;;;;;;13.53;6.63;;;11.00;99.90;;;;;;4208206;28;20267;-79
2023/04/22 07:02:26;;;;;;;11.13;6.20;;;11.20;99.90;;;;;;4212361;28;20242;-81
2023/04/22 07:04:30;;;;;;;10.97;6.40;;;11.20;99.90;;;;;;4212017;28;20530;-75
2023/04/22 07:06:33;;;;;;;14.87;6.57;;;11.20;99.90;;;;;;4206621;28;20210;-75
2023/04/22 07:08:35;;;;;;;8.23;6.20;;;11.30;99.90;;;;;;4213100;28;20215;-75
2023/04/22 07:10:37;;;;;;;11.33;6.43;;;11.30;99.90;;;;;;4208333;28;20732;-75
2023/04/22 07:12:39;;;;;;;12.87;6.30;;;11.40;99.90;;;;;;4209857;28;20251;-75
2023/04/22 07:14:44;;;;;;;10.40;6.03;;;11.50;99.90;;;;;;4210654;28;20205;-75
2023/04/22 07:16:46;;;;;;;9.87;5.70;;;11.50;99.90;;;;;;4213858;28;20210;-74
2023/04/22 07:18:51;;;;;;;9.63;5.63;;;11.60;99.90;;;;;;4203876;28;20217;-75
2023/04/22 07:20:53;;;;;;;9.10;6.10;;;11.60;99.90;;;;;;4204568;28;20240;-74
2023/04/22 07:22:56;;;;;;;8.53;5.40;;;11.70;99.90;;;;;;4213157;28;20223;-74
2023/04/22 07:24:58;;;;;;;8.23;5.53;;;11.70;99.90;;;;;;4213773;28;21061;-74
2023/04/22 07:27:01;;;;;;;8.10;5.53;;;11.80;99.90;;;;;;4210976;28;20208;-74
2023/04/22 07:29:05;;;;;;;8.63;5.60;;;11.90;99.90;;;;;;4209150;28;20259;-74
2023/04/22 07:31:07;;;;;;;11.27;5.73;;;12.00;99.90;;;;;;4210584;28;20237;-74
2023/04/22 07:33:09;;;;;;;10.77;5.63;;;12.00;99.90;;;;;;4206609;28;20258;-73
2023/04/22 07:35:11;;;;;;;8.87;5.00;;;12.10;99.90;;;;;;4209009;28;20208;-74
2023/04/22 07:37:13;;;;;;;9.13;5.33;;;12.20;99.90;;;;;;4211251;28;20262;-74
2023/04/22 07:39:16;;;;;;;8.33;4.90;;;12.20;99.90;;;;;;4209289;28;20687;-74
2023/04/22 07:41:18;;;;;;;7.93;5.37;;;12.30;99.90;;;;;;4213423;28;20329;-74
2023/04/22 07:43:20;;;;;;;11.20;5.13;;;12.40;99.90;;;;;;4209193;28;20288;-74
2023/04/22 07:45:22;;;;;;;11.07;5.77;;;12.50;99.90;;;;;;4212210;28;20323;-74
2023/04/22 07:47:25;;;;;;;8.33;5.00;;;12.60;99.90;;;;;;4208516;28;20236;-75
2023/04/22 07:49:30;;;;;;;8.77;5.20;;;12.70;99.90;;;;;;4211946;28;20312;-74
2023/04/22 07:51:32;;;;;;;9.27;5.03;;;12.70;99.90;;;;;;4210166;28;20225;-75
2023/04/22 07:53:34;;;;;;;8.47;4.97;;;12.90;99.90;;;;;;4205633;28;20303;-74
2023/04/22 07:55:37;;;;;;;12.57;5.10;;;13.00;99.90;;;;;;4211390;28;20651;-78
2023/04/22 07:57:41;;;;;;;8.97;5.27;;;13.10;99.90;;;;;;4206912;28;20215;-76
2023/04/22 07:59:43;;;;;;;9.03;5.00;;;13.10;99.90;;;;;;4211523;28;20242;-76
2023/04/22 08:01:46;;;;;;;8.07;4.60;;;13.20;99.90;;;;;;4211611;28;20209;-77
2023/04/22 08:03:49;;;;;;;9.00;5.23;;;13.30;99.90;;;;;;4209154;28;20230;-76
2023/04/22 08:05:51;;;;;;;12.37;5.13;;;13.40;99.90;;;;;;4206985;28;20207;-75
2023/04/22 08:07:53;;;;;;;9.57;5.70;;;13.50;99.90;;;;;;4207019;28;20210;-76
2023/04/22 08:09:55;;;;;;;9.27;5.00;;;13.60;99.90;;;;;;4207791;28;20236;-76
2023/04/22 08:12:00;;;;;;;9.40;5.30;;;13.70;99.90;;;;;;4211453;28;20224;-77
2023/04/22 08:14:10;;;;;;;9.93;4.50;;;13.80;99.90;;;;;;4206860;28;20229;-77
2023/04/22 08:16:12;;;;;;;12.43;4.77;;;13.80;99.90;;;;;;4210058;28;20210;-75
2023/04/22 08:18:14;;;;;;;9.87;4.10;;;13.90;99.90;;;;;;4207029;28;20227;-74
2023/04/22 08:20:16;;;;;;;7.27;3.93;;;14.00;99.90;;;;;;4208890;28;20627;-75
2023/04/22 08:22:18;;;;;;;7.57;4.30;;;14.20;99.90;;;;;;4211632;28;20216;-74
2023/04/22 08:24:20;;;;;;;8.27;4.50;;;14.20;99.90;;;;;;4206599;28;20730;-75
2023/04/22 08:26:22;;;;;;;6.90;3.90;;;14.30;99.90;;;;;;4207487;28;20294;-74
2023/04/22 08:28:26;;;;;;;6.10;3.90;;;14.40;99.90;;;;;;4205919;28;20288;-75
2023/04/22 08:30:28;;;;;;;8.77;4.13;;;14.40;99.90;;;;;;4209953;28;20751;-75
2023/04/22 08:32:30;;;;;;;6.37;3.83;;;14.50;99.90;;;;;;4206778;28;20209;-74
2023/04/22 08:34:32;;;;;;;8.70;3.77;;;14.60;99.90;;;;;;4210330;28;20291;-75
2023/04/22 08:36:35;;;;;;;7.47;3.83;;;14.70;99.90;;;;;;4213356;28;20216;-75
2023/04/22 08:38:37;;;;;;;7.10;3.70;;;14.80;99.90;;;;;;4208683;28;20244;-75
2023/04/22 08:40:41;;;;;;;9.83;4.00;;;14.90;99.90;;;;;;4209178;28;20624;-75
2023/04/22 08:42:44;;;;;;;8.43;3.40;;;15.00;99.90;;;;;;4212518;28;20303;-75
2023/04/22 08:44:48;;;;;;;7.93;3.37;;;15.10;99.90;;;;;;4209053;28;20239;-75
2023/04/22 08:46:51;;;;;;;6.90;3.30;;;15.20;99.90;;;;;;4205122;28;20570;-75
2023/04/22 08:48:54;;;;;;;7.73;3.43;;;15.30;99.90;;;;;;4204798;28;20221;-75
2023/04/22 08:50:57;;;;;;;5.20;3.23;;;15.50;99.90;;;;;;4209214;28;20675;-75
2023/04/22 08:52:59;;;;;;;4.97;3.00;;;15.50;99.90;;;;;;4210415;28;20583;-74
2023/04/22 08:55:01;;;;;;;8.77;3.50;;;15.70;99.90;;;;;;4209964;28;20209;-74
2023/04/22 08:57:06;;;;;;;6.83;3.00;;;15.70;99.90;;;;;;4209344;28;20213;-74
2023/04/22 08:59:12;;;;;;;5.90;2.90;;;15.80;99.90;;;;;;4208821;28;20213;-75
2023/04/22 09:01:17;;;;;;;5.30;2.80;;;16.00;99.90;;;;;;4205721;28;20303;-75
2023/04/22 09:03:19;;;;;;;8.17;3.53;;;16.10;99.90;;;;;;4205498;28;20211;-74
2023/04/22 09:05:23;;;;;;;8.93;3.33;;;16.20;99.90;;;;;;4208197;28;20313;-74
2023/04/22 09:07:28;;;;;;;6.07;3.50;;;16.30;99.90;;;;;;4204695;28;20212;-75
2023/04/22 09:09:33;;;;;;;8.33;3.43;;;16.50;99.90;;;;;;4207881;28;21244;-74
2023/04/22 09:11:35;;;;;;;9.70;2.90;;;16.60;99.90;;;;;;4210231;28;20304;-75
2023/04/22 09:13:38;;;;;;;5.73;2.97;;;16.70;99.90;;;;;;4210124;28;20269;-75
2023/04/22 09:15:40;;;;;;;9.23;3.37;;;16.80;99.90;;;;;;4208583;28;20250;-74
2023/04/22 09:17:43;;;;;;;7.50;3.17;;;16.90;99.90;;;;;;4212241;28;20216;-74
2023/04/22 09:19:45;;;;;;;5.93;3.30;;;17.00;99.90;;;;;;4209779;28;20258;-75
2023/04/22 09:21:47;;;;;;;8.63;3.53;;;17.10;99.90;;;;;;4210035;28;20656;-75
2023/04/22 09:23:52;;;;;;;5.70;2.93;;;17.20;99.90;;;;;;4210662;28;20307;-74
2023/04/22 09:25:57;;;;;;;6.93;3.27;;;17.20;99.90;;;;;;4204751;28;20314;-74
2023/04/22 09:27:59;;;;;;;5.63;3.43;;;17.40;99.90;;;;;;4203339;28;20926;-74
2023/04/22 09:30:01;;;;;;;8.33;3.50;;;17.50;99.90;;;;;;4207603;28;20242;-75
2023/04/22 09:32:10;;;;;;;7.00;3.13;;;17.60;99.90;;;;;;4207318;28;20301;-75
2023/04/22 09:34:21;;;;;;;4.97;3.17;;;17.60;99.90;;;;;;4205488;28;20223;-75
2023/04/22 09:36:26;;;;;;;7.10;3.10;;;17.80;99.90;;;;;;4209909;28;20204;-74
2023/04/22 09:38:31;;;;;;;11.40;3.33;;;17.90;99.90;;;;;;4206718;28;20240;-75
2023/04/22 09:40:33;;;;;;;4.37;2.60;;;18.10;99.90;;;;;;4203022;28;20260;-74
2023/04/22 09:42:49;;;;;;;4.87;2.90;;;18.10;99.90;;;;;;4206642;28;20307;-73
2023/04/22 09:44:52;;;;;;;12.60;3.60;;;18.20;99.90;;;;;;4205738;28;20260;-75
2023/04/22 09:46:54;;;;;;;7.17;3.33;;;18.30;99.90;;;;;;4205840;28;20307;-73
2023/04/22 09:48:58;;;;;;;12.37;3.50;;;18.40;99.90;;;;;;4206029;28;20335;-73
2023/04/22 09:51:01;;;;;;;8.83;3.20;;;18.40;99.90;;;;;;4208519;28;20714;-72
2023/04/22 09:53:05;;;;;;;5.33;2.93;;;18.50;99.90;;;;;;4208400;28;20217;-73
2023/04/22 09:55:09;;;;;;;8.20;3.50;;;18.60;99.90;;;;;;4207949;28;20243;-73
2023/04/22 09:57:14;;;;;;;7.00;3.37;;;18.60;99.90;;;;;;4209639;28;20694;-75
2023/04/22 09:59:20;;;;;;;5.33;3.10;;;18.70;99.90;;;;;;4208547;28;20292;-72
2023/04/22 10:01:22;;;;;;;5.23;3.40;;;18.80;99.90;;;;;;4208502;28;20271;-73
2023/04/22 10:03:26;;;;;;;6.30;3.60;;;18.90;99.90;;;;;;4208951;28;20304;-75
2023/04/22 10:05:28;;;;;;;9.03;3.60;;;19.00;99.90;;;;;;4208283;28;20297;-75
2023/04/22 10:07:32;;;;;;;6.77;3.50;;;19.00;99.90;;;;;;4202891;28;20213;-73
2023/04/22 10:09:35;;;;;;;5.63;3.20;;;19.10;99.90;;;;;;4208648;28;20271;-73
2023/04/22 10:11:39;;;;;;;7.83;3.37;;;19.20;99.90;;;;;;4210425;28;21000;-73
2023/04/22 10:13:41;;;;;;;6.97;3.80;;;19.30;99.90;;;;;;4204312;28;21558;-73
2023/04/22 10:15:47;;;;;;;11.27;4.07;;;19.40;99.90;;;;;;4209132;28;20729;-72
2023/04/22 10:17:53;;;;;;;5.63;3.30;;;19.40;99.90;;;;;;4205936;28;20388;-73
2023/04/22 10:19:55;;;;;;;5.10;2.97;;;19.60;99.90;;;;;;4213259;28;20228;-73
2023/04/22 10:21:59;;;;;;;10.17;3.67;;;19.60;99.90;;;;;;4207544;28;20209;-73
2023/04/22 10:24:05;;;;;;;7.20;3.60;;;19.80;99.90;;;;;;4210566;28;20233;-73
2023/04/22 10:26:07;;;;;;;7.17;3.07;;;19.90;98.90;;;;;;4206782;28;20751;-73
2023/04/22 10:28:12;;;;;;;5.80;2.97;;;20.00;98.00;;;;;;4215235;28;20300;-73
2023/04/22 10:30:28;;;;;;;8.23;3.20;;;20.10;91.60;;;;;;4203610;28;20257;-74
2023/04/22 10:32:30;;;;;;;10.20;3.53;;;20.20;84.30;;;;;;4209795;28;20224;-74
2023/04/22 10:34:32;;;;;;;6.97;3.13;;;20.30;80.30;;;;;;4212784;28;20241;-74
2023/04/22 10:36:34;;;;;;;4.63;2.90;;;20.40;87.30;;;;;;4207254;28;20224;-74